createdAt,value
2023-04-13T00:00:11.019Z,0.90
2023-04-13T00:02:39.354Z,1.23
2023-04-13T00:05:10.137Z,0.90
2023-04-13T00:07:38.598Z,0.70
2023-04-13T00:10:09.849Z,0.83
2023-04-13T00:12:37.028Z,1.07
2023-04-13T00:15:04.322Z,1.20
2023-04-13T00:17:30.991Z,0.87
2023-04-13T00:19:58.236Z,0.93
2023-04-13T00:22:25.555Z,1.20
2023-04-13T00:24:55.629Z,0.80
2023-04-13T00:27:23.079Z,0.70
2023-04-13T00:29:49.573Z,1.17
2023-04-13T00:32:16.090Z,0.57
2023-04-13T00:34:42.630Z,0.70
2023-04-13T00:37:09.171Z,0.87
2023-04-13T00:39:35.678Z,1.10
2023-04-13T00:42:03.570Z,1.07
2023-04-13T00:44:30.789Z,1.00
2023-04-13T00:46:57.476Z,0.77
2023-04-13T00:49:24.007Z,1.07
2023-04-13T00:51:50.888Z,0.87
2023-04-13T00:54:18.539Z,1.00
2023-04-13T00:56:45.802Z,1.10
2023-04-13T00:59:12.635Z,0.67
2023-04-13T01:01:56.542Z,0.90
2023-04-13T01:04:27.332Z,0.80
2023-04-13T01:07:12.696Z,1.33
2023-04-13T01:09:48.599Z,0.90
2023-04-13T01:12:21.759Z,1.03
2023-04-13T01:14:52.892Z,0.80
2023-04-13T01:20:16.299Z,0.70
2023-04-13T01:22:51.450Z,1.10
2023-04-13T01:25:33.443Z,0.80
2023-04-13T01:28:05.423Z,1.33
2023-04-13T01:30:34.297Z,0.60
2023-04-13T01:33:02.267Z,0.80
2023-04-13T01:35:30.699Z,0.70
2023-04-13T01:37:58.234Z,0.70
2023-04-13T01:40:26.493Z,1.20
2023-04-13T01:42:55.105Z,0.80
2023-04-13T01:45:21.744Z,1.50
2023-04-13T01:48:04.827Z,0.90
2023-04-13T01:50:57.469Z,1.10
2023-04-13T01:53:55.836Z,1.00
2023-04-13T01:56:26.497Z,1.67
2023-04-13T01:59:00.591Z,0.80
2023-04-13T02:01:28.893Z,1.10
2023-04-13T02:03:56.973Z,1.37
2023-04-13T02:06:28.491Z,1.10
2023-04-13T02:08:55.432Z,1.60
2023-04-13T02:11:22.315Z,0.80
2023-04-13T02:13:49.538Z,1.00
2023-04-13T02:16:19.905Z,0.80
2023-04-13T02:18:46.766Z,0.90
2023-04-13T02:21:13.974Z,0.93
2023-04-13T02:23:41.329Z,1.10
2023-04-13T02:26:08.920Z,1.10
2023-04-13T02:28:36.010Z,0.80
2023-04-13T02:31:05.869Z,1.13
2023-04-13T02:33:33.977Z,0.90
2023-04-13T02:36:02.710Z,0.80
2023-04-13T02:38:32.567Z,0.90
2023-04-13T02:41:06.416Z,0.80
2023-04-13T02:43:33.562Z,0.83
2023-04-13T02:46:00.136Z,0.60
2023-04-13T02:48:33.068Z,0.97
2023-04-13T02:51:02.414Z,0.70
2023-04-13T02:53:31.888Z,1.00
2023-04-13T02:56:02.974Z,0.60
2023-04-13T02:58:31.704Z,0.83
2023-04-13T03:01:01.980Z,0.83
2023-04-13T03:03:30.484Z,0.70
2023-04-13T03:05:57.718Z,0.90
2023-04-13T03:08:42.552Z,0.60
2023-04-13T03:11:18.694Z,1.00
2023-04-13T03:13:54.078Z,1.23
2023-04-13T03:16:21.024Z,1.00
2023-04-13T03:18:47.731Z,1.00
2023-04-13T03:21:14.865Z,0.87
2023-04-13T03:24:02.786Z,1.10
2023-04-13T03:26:30.711Z,0.60
2023-04-13T03:29:00.588Z,1.07
2023-04-13T03:31:29.306Z,1.67
2023-04-13T03:33:58.711Z,0.70
2023-04-13T03:36:27.618Z,0.90
2023-04-13T03:38:54.907Z,1.00
2023-04-13T03:41:22.704Z,0.90
2023-04-13T03:43:49.965Z,0.70
2023-04-13T03:46:16.726Z,1.10
2023-04-13T03:48:43.358Z,0.83
2023-04-13T03:51:14.495Z,0.60
2023-04-13T03:53:47.208Z,1.23
2023-04-13T03:56:14.131Z,1.10
2023-04-13T03:58:41.812Z,0.70
2023-04-13T04:01:10.247Z,0.90
2023-04-13T04:03:49.339Z,0.80
2023-04-13T04:06:17.350Z,1.07
2023-04-13T04:08:51.632Z,1.47
2023-04-13T04:11:32.238Z,0.90
2023-04-13T04:13:59.570Z,0.90
2023-04-13T04:16:26.659Z,0.80
2023-04-13T04:19:02.180Z,0.67
2023-04-13T04:21:34.399Z,0.90
2023-04-13T04:24:06.515Z,1.00
2023-04-13T04:26:37.927Z,0.90
2023-04-13T04:29:07.050Z,0.93
2023-04-13T04:31:37.177Z,0.87
2023-04-13T04:34:10.448Z,0.97
2023-04-13T04:36:41.509Z,1.20
2023-04-13T04:39:09.932Z,1.20
2023-04-13T04:41:44.699Z,1.13
2023-04-13T04:44:12.824Z,1.33
2023-04-13T04:46:43.516Z,1.20
2023-04-13T04:49:13.961Z,0.87
2023-04-13T04:51:40.916Z,1.40
2023-04-13T04:54:08.491Z,0.93
2023-04-13T04:56:35.465Z,1.60
2023-04-13T04:59:02.192Z,1.80
2023-04-13T05:01:38.660Z,1.27
2023-04-13T05:04:10.248Z,1.67
2023-04-13T05:06:41.454Z,1.60
2023-04-13T05:09:10.957Z,1.30
2023-04-13T05:11:41.377Z,1.27
2023-04-13T05:14:10.367Z,1.23
2023-04-13T05:16:37.308Z,1.00
2023-04-13T05:19:12.694Z,1.67
2023-04-13T05:21:49.168Z,1.53
2023-04-13T05:24:15.923Z,1.30
2023-04-13T05:26:43.730Z,1.30
2023-04-13T05:29:13.088Z,1.23
2023-04-13T05:31:43.023Z,1.00
2023-04-13T05:34:09.948Z,0.90
2023-04-13T05:36:37.895Z,1.10
2023-04-13T05:39:10.822Z,1.57
2023-04-13T05:41:37.685Z,1.10
2023-04-13T05:44:04.702Z,1.17
2023-04-13T05:46:33.031Z,1.60
2023-04-13T05:49:03.970Z,1.10
2023-04-13T05:51:31.754Z,1.10
2023-04-13T05:53:58.397Z,0.90
2023-04-13T05:56:25.985Z,1.37
2023-04-13T05:58:53.274Z,1.20
2023-04-13T06:01:24.525Z,0.97
2023-04-13T06:03:52.885Z,0.97
2023-04-13T06:06:21.007Z,2.83
2023-04-13T06:08:47.740Z,0.83
2023-04-13T06:11:16.550Z,1.10
2023-04-13T06:13:43.761Z,1.20
2023-04-13T06:16:10.484Z,1.67
2023-04-13T06:18:37.715Z,1.07
2023-04-13T06:21:04.557Z,1.60
2023-04-13T06:23:31.120Z,1.50
2023-04-13T06:26:03.179Z,1.23
2023-04-13T06:28:43.087Z,1.60
2023-04-13T06:31:13.369Z,1.27
2023-04-13T06:33:40.712Z,1.90
2023-04-13T06:36:08.089Z,1.53
2023-04-13T06:38:35.793Z,1.30
2023-04-13T06:41:07.135Z,1.23
2023-04-13T06:43:37.677Z,1.57
2023-04-13T06:46:23.160Z,1.90
2023-04-13T06:48:51.478Z,1.83
2023-04-13T06:51:22.674Z,1.77
2023-04-13T06:53:49.992Z,2.33
2023-04-13T06:56:17.087Z,2.03
2023-04-13T06:58:45.360Z,1.80
2023-04-13T07:01:12.437Z,1.20
2023-04-13T07:03:41.052Z,1.50
2023-04-13T07:06:08.403Z,1.87
2023-04-13T07:08:36.546Z,1.50
2023-04-13T07:11:03.195Z,1.80
2023-04-13T07:13:39.297Z,2.83
2023-04-13T07:16:09.309Z,2.10
2023-04-13T07:18:38.352Z,1.63
2023-04-13T07:21:05.498Z,1.77
2023-04-13T07:23:43.323Z,2.50
2023-04-13T07:26:13.989Z,1.90
2023-04-13T07:28:41.882Z,2.73
2023-04-13T07:31:10.201Z,2.43
2023-04-13T07:33:39.139Z,2.63
2023-04-13T07:36:06.868Z,2.20
2023-04-13T07:38:33.815Z,2.47
2023-04-13T07:41:00.748Z,2.53
2023-04-13T07:43:31.634Z,2.60
2023-04-13T07:46:01.233Z,2.00
2023-04-13T07:48:27.937Z,3.90
2023-04-13T07:50:56.790Z,5.80
2023-04-13T07:53:23.862Z,3.47
2023-04-13T07:55:51.260Z,3.00
2023-04-13T07:58:17.881Z,4.10
2023-04-13T08:00:46.728Z,2.80
2023-04-13T08:03:14.249Z,3.17
2023-04-13T08:05:41.197Z,3.60
2023-04-13T08:08:09.159Z,3.00
2023-04-13T08:10:35.730Z,3.20
2023-04-13T08:13:04.981Z,5.07
2023-04-13T08:15:31.991Z,3.30
2023-04-13T08:17:59.985Z,3.50
2023-04-13T08:20:29.190Z,3.90
2023-04-13T08:22:56.430Z,2.80
2023-04-13T08:25:22.956Z,3.60
2023-04-13T08:27:50.540Z,3.87
2023-04-13T08:30:17.254Z,4.10
2023-04-13T08:32:51.221Z,5.00
2023-04-13T08:35:18.355Z,4.47
2023-04-13T08:37:45.552Z,4.50
2023-04-13T08:40:12.961Z,4.43
2023-04-13T08:42:41.704Z,3.93
2023-04-13T08:45:09.225Z,4.53
2023-04-13T08:47:39.951Z,5.77
2023-04-13T08:50:08.061Z,4.20
2023-04-13T08:52:41.286Z,4.90
2023-04-13T08:55:08.077Z,3.43
2023-04-13T08:57:36.430Z,6.30
2023-04-13T09:00:06.586Z,4.00
2023-04-13T09:02:36.768Z,5.27
2023-04-13T09:05:13.830Z,4.23
2023-04-13T09:07:40.692Z,4.63
2023-04-13T09:10:16.356Z,4.67
2023-04-13T09:12:47.157Z,3.90
2023-04-13T09:15:17.374Z,4.43
2023-04-13T09:17:53.319Z,3.40
2023-04-13T09:20:22.642Z,4.57
2023-04-13T09:22:50.108Z,4.40
2023-04-13T09:25:20.393Z,4.03
2023-04-13T09:27:46.918Z,4.40
2023-04-13T09:30:13.725Z,4.50
2023-04-13T09:32:40.808Z,2.57
2023-04-13T09:35:08.378Z,3.60
2023-04-13T09:37:36.981Z,4.87
2023-04-13T09:40:14.358Z,4.27
2023-04-13T09:42:41.842Z,4.30
2023-04-13T09:45:09.640Z,3.40
2023-04-13T09:47:40.614Z,3.70
2023-04-13T09:50:17.665Z,4.10
2023-04-13T09:52:45.498Z,4.10
2023-04-13T09:55:18.828Z,3.80
2023-04-13T09:57:45.454Z,4.13
2023-04-13T10:00:20.827Z,4.20
2023-04-13T10:02:49.052Z,3.77
2023-04-13T10:05:16.131Z,4.17
2023-04-13T10:07:47.050Z,4.20
2023-04-13T10:10:13.659Z,4.37
2023-04-13T10:12:43.927Z,4.17
2023-04-13T10:15:25.804Z,3.27
2023-04-13T10:18:04.718Z,2.40
2023-04-13T10:20:32.170Z,3.93
2023-04-13T10:22:58.856Z,3.83
2023-04-13T10:25:33.274Z,2.80
2023-04-13T10:28:01.031Z,3.30
2023-04-13T10:30:27.906Z,4.50
2023-04-13T10:33:05.973Z,3.40
2023-04-13T10:35:41.457Z,3.27
2023-04-13T10:38:10.717Z,3.27
2023-04-13T10:40:46.751Z,3.20
2023-04-13T10:43:13.277Z,3.30
2023-04-13T10:45:39.949Z,4.90
2023-04-13T10:48:07.565Z,3.83
2023-04-13T10:50:34.344Z,3.87
2023-04-13T10:53:01.034Z,4.23
2023-04-13T10:55:28.192Z,3.73
2023-04-13T10:57:56.663Z,3.47
2023-04-13T11:00:31.813Z,2.00
2023-04-13T11:03:09.509Z,3.57
2023-04-13T11:05:36.343Z,2.73
2023-04-13T11:08:03.960Z,4.53
2023-04-13T11:10:31.353Z,4.57
2023-04-13T11:12:58.508Z,4.67
2023-04-13T11:15:26.263Z,5.47
2023-04-13T11:17:56.222Z,3.43
2023-04-13T11:20:32.301Z,4.97
2023-04-13T11:22:59.122Z,3.63
2023-04-13T11:25:26.478Z,2.50
2023-04-13T11:28:00.193Z,4.00
2023-04-13T11:30:27.803Z,5.20
2023-04-13T11:32:55.028Z,2.77
2023-04-13T11:35:23.489Z,2.93
2023-04-13T11:37:52.982Z,4.40
2023-04-13T11:40:25.863Z,3.33
2023-04-13T11:42:56.760Z,2.30
2023-04-13T11:45:25.799Z,2.17
2023-04-13T11:47:53.384Z,2.90
2023-04-13T11:50:21.667Z,2.40
2023-04-13T11:52:49.476Z,2.07
2023-04-13T11:55:23.249Z,2.20
2023-04-13T11:57:51.582Z,2.50
2023-04-13T12:00:21.714Z,3.60
2023-04-13T12:03:00.972Z,3.10
2023-04-13T12:05:31.587Z,2.60
2023-04-13T12:07:59.392Z,2.27
2023-04-13T12:10:37.323Z,2.10
2023-04-13T12:13:20.232Z,2.33
2023-04-13T12:16:06.096Z,2.97
2023-04-13T12:18:57.354Z,1.83
2023-04-13T12:21:26.382Z,2.70
2023-04-13T12:23:53.615Z,2.73
2023-04-13T12:26:59.241Z,2.57
2023-04-13T12:29:07.858Z,3.20
2023-04-13T12:31:35.896Z,2.53
2023-04-13T12:34:06.036Z,3.10
2023-04-13T12:36:35.382Z,3.07
2023-04-13T12:39:04.918Z,2.53
2023-04-13T12:41:32.157Z,2.27
2023-04-13T12:43:58.725Z,2.33
2023-04-13T12:46:26.380Z,2.83
2023-04-13T12:48:53.158Z,3.33
2023-04-13T12:51:19.737Z,3.03
2023-04-13T12:53:46.416Z,2.27
2023-04-13T12:56:13.139Z,2.80
2023-04-13T12:58:39.626Z,2.40
2023-04-13T13:01:07.077Z,2.67
2023-04-13T13:03:33.984Z,3.23
2023-04-13T13:06:00.743Z,2.90
2023-04-13T13:08:27.484Z,1.80
2023-04-13T13:10:54.019Z,2.23
2023-04-13T13:13:20.557Z,3.63
2023-04-13T13:15:47.466Z,2.03
2023-04-13T13:18:14.426Z,2.17
2023-04-13T13:20:44.344Z,2.30
2023-04-13T13:23:11.823Z,2.90
2023-04-13T13:25:42.444Z,2.30
2023-04-13T13:28:16.053Z,1.90
2023-04-13T13:30:43.022Z,2.80
2023-04-13T13:33:09.968Z,2.60
2023-04-13T13:35:36.566Z,2.50
2023-04-13T13:38:03.340Z,2.30
2023-04-13T13:40:30.127Z,3.33
2023-04-13T13:42:56.681Z,2.60
2023-04-13T13:45:23.586Z,3.07
2023-04-13T13:47:54.274Z,2.40
2023-04-13T13:50:30.883Z,2.30
2023-04-13T13:53:03.264Z,2.07
2023-04-13T13:55:35.480Z,2.60
2023-04-13T13:58:02.672Z,2.80
2023-04-13T14:00:29.329Z,2.80
2023-04-13T14:02:56.028Z,3.30
2023-04-13T14:05:22.712Z,1.50
2023-04-13T14:07:49.472Z,2.10
2023-04-13T14:10:16.203Z,2.83
2023-04-13T14:12:44.260Z,2.40
2023-04-13T14:15:12.321Z,2.53
2023-04-13T14:17:39.614Z,2.77
2023-04-13T14:20:09.504Z,2.17
2023-04-13T14:22:36.702Z,2.27
2023-04-13T14:25:04.081Z,3.27
2023-04-13T14:27:30.575Z,2.47
2023-04-13T14:29:57.213Z,2.53
2023-04-13T14:32:23.864Z,2.80
2023-04-13T14:34:50.457Z,3.53
2023-04-13T14:37:17.022Z,2.23
2023-04-13T14:39:43.910Z,2.60
2023-04-13T14:42:12.349Z,2.20
2023-04-13T14:44:38.819Z,2.77
2023-04-13T14:47:08.739Z,1.80
2023-04-13T14:49:36.236Z,1.60
2023-04-13T14:52:03.748Z,2.10
2023-04-13T14:54:30.321Z,2.27
2023-04-13T14:56:57.020Z,1.80
2023-04-13T14:59:24.064Z,2.60
2023-04-13T15:01:51.084Z,1.57
2023-04-13T15:04:18.281Z,3.57
2023-04-13T15:06:47.786Z,2.30
2023-04-13T15:09:15.614Z,2.40
2023-04-13T15:11:42.642Z,2.30
2023-04-13T15:14:09.307Z,1.73
2023-04-13T15:16:36.484Z,1.80
2023-04-13T15:19:03.778Z,2.00
2023-04-13T15:21:30.494Z,2.07
2023-04-13T15:23:57.331Z,3.60
2023-04-13T15:26:24.055Z,2.53
2023-04-13T15:28:50.776Z,1.80
2023-04-13T15:31:17.367Z,1.80
2023-04-13T15:33:44.209Z,1.80
2023-04-13T15:36:15.894Z,3.13
2023-04-13T15:38:42.999Z,1.43
2023-04-13T15:41:10.310Z,2.50
2023-04-13T15:43:37.112Z,2.70
2023-04-13T15:46:03.739Z,1.53
2023-04-13T15:48:30.870Z,1.73
2023-04-13T15:50:58.023Z,1.77
2023-04-13T15:53:25.772Z,2.07
2023-04-13T15:55:54.647Z,2.27
2023-04-13T15:58:21.602Z,2.53
2023-04-13T16:00:57.265Z,2.13
2023-04-13T16:03:24.514Z,2.83
2023-04-13T16:05:51.318Z,2.70
2023-04-13T16:08:19.293Z,2.00
2023-04-13T16:10:46.627Z,1.97
2023-04-13T16:13:18.919Z,3.43
2023-04-13T16:15:53.209Z,1.70
2023-04-13T16:18:22.022Z,1.30
2023-04-13T16:20:49.584Z,1.23
2023-04-13T16:23:16.350Z,1.63
2023-04-13T16:25:42.957Z,1.90
2023-04-13T16:28:10.693Z,1.70
2023-04-13T16:30:37.705Z,1.60
2023-04-13T16:33:05.657Z,1.53
2023-04-13T16:35:32.409Z,1.63
2023-04-13T16:37:59.064Z,1.50
2023-04-13T16:40:25.618Z,3.23
2023-04-13T16:42:52.262Z,2.77
2023-04-13T16:45:19.144Z,2.70
2023-04-13T16:47:46.470Z,2.03
2023-04-13T16:50:13.464Z,3.00
2023-04-13T16:52:40.647Z,2.03
2023-04-13T16:55:07.840Z,2.00
2023-04-13T16:57:34.456Z,2.43
2023-04-13T17:00:06.245Z,2.53
2023-04-13T17:02:36.952Z,2.17
2023-04-13T17:05:04.535Z,1.80
2023-04-13T17:07:31.100Z,1.90
2023-04-13T17:09:57.805Z,2.57
2023-04-13T17:12:24.768Z,2.30
2023-04-13T17:14:51.359Z,2.40
2023-04-13T17:17:17.881Z,1.93
2023-04-13T17:19:44.484Z,1.70
2023-04-13T17:22:11.561Z,1.87
2023-04-13T17:24:38.124Z,1.30
2023-04-13T17:27:04.747Z,2.07
2023-04-13T17:29:33.346Z,1.67
2023-04-13T17:32:00.106Z,2.10
2023-04-13T17:34:27.007Z,1.70
2023-04-13T17:36:54.667Z,1.40
2023-04-13T17:39:21.348Z,1.80
2023-04-13T17:41:49.537Z,2.13
2023-04-13T17:44:16.211Z,2.40
2023-04-13T17:46:42.913Z,2.30
2023-04-13T17:49:09.473Z,2.57
2023-04-13T17:51:36.005Z,2.50
2023-04-13T17:54:07.860Z,2.60
2023-04-13T17:56:34.785Z,2.90
2023-04-13T17:59:02.270Z,3.20
2023-04-13T18:01:29.018Z,1.93
2023-04-13T18:03:56.095Z,5.40
2023-04-13T18:06:22.846Z,2.70
2023-04-13T18:08:49.473Z,2.77
2023-04-13T18:11:16.246Z,1.97
2023-04-13T18:13:42.905Z,2.43
2023-04-13T18:16:11.695Z,2.57
2023-04-13T18:18:40.175Z,2.57
2023-04-13T18:21:06.855Z,3.70
2023-04-13T18:23:33.497Z,2.50
2023-04-13T18:26:01.520Z,2.47
2023-04-13T18:28:29.567Z,2.03
2023-04-13T18:31:00.525Z,4.17
2023-04-13T18:33:27.839Z,2.70
2023-04-13T18:35:54.469Z,3.87
2023-04-13T18:38:21.477Z,2.70
2023-04-13T18:40:49.249Z,2.53
2023-04-13T18:43:16.205Z,1.93
2023-04-13T18:45:43.273Z,2.23
2023-04-13T18:48:10.107Z,2.77
2023-04-13T18:50:37.426Z,3.70
2023-04-13T18:53:04.148Z,3.07
2023-04-13T18:55:30.990Z,2.57
2023-04-13T18:57:57.733Z,2.07
2023-04-13T19:00:24.339Z,3.87
2023-04-13T19:02:57.174Z,3.30
2023-04-13T19:05:24.457Z,2.57
2023-04-13T19:07:58.926Z,3.10
2023-04-13T19:10:25.911Z,2.60
2023-04-13T19:12:52.558Z,2.40
2023-04-13T19:15:19.388Z,2.53
2023-04-13T19:17:46.284Z,2.50
2023-04-13T19:20:13.498Z,1.67
2023-04-13T19:22:40.240Z,2.17
2023-04-13T19:25:07.703Z,2.40
2023-04-13T19:27:34.361Z,3.57
2023-04-13T19:30:01.359Z,3.33
2023-04-13T19:32:29.019Z,1.90
2023-04-13T19:34:55.976Z,2.30
2023-04-13T19:37:22.570Z,2.20
2023-04-13T19:39:49.176Z,1.63
2023-04-13T19:42:16.156Z,2.03
2023-04-13T19:44:42.719Z,3.07
2023-04-13T19:47:09.237Z,2.30
2023-04-13T19:49:36.163Z,3.43
2023-04-13T19:52:02.853Z,2.57
2023-04-13T19:54:29.435Z,2.20
2023-04-13T19:56:56.607Z,3.70
2023-04-13T19:59:23.246Z,2.93
2023-04-13T20:01:49.952Z,2.47
2023-04-13T20:04:16.848Z,2.70
2023-04-13T20:06:43.782Z,4.00
2023-04-13T20:09:11.394Z,2.97
2023-04-13T20:11:38.724Z,3.07
2023-04-13T20:14:05.652Z,2.20
2023-04-13T20:16:32.206Z,2.77
2023-04-13T20:18:59.224Z,4.17
2023-04-13T20:21:26.423Z,3.87
2023-04-13T20:23:53.044Z,3.47
2023-04-13T20:26:19.637Z,2.83
2023-04-13T20:28:46.176Z,3.87
2023-04-13T20:31:12.961Z,3.23
2023-04-13T20:33:39.613Z,3.10
2023-04-13T20:36:06.522Z,3.40
2023-04-13T20:38:36.365Z,7.30
2023-04-13T20:41:03.298Z,7.23
2023-04-13T20:43:30.228Z,5.13
2023-04-13T20:45:58.718Z,4.10
2023-04-13T20:50:55.585Z,3.57
2023-04-13T20:53:23.940Z,2.93
2023-04-13T20:55:51.530Z,5.20
2023-04-13T20:58:18.275Z,5.37
2023-04-13T21:00:45.189Z,23.93
2023-04-13T21:03:12.423Z,30.90
2023-04-13T21:05:39.323Z,35.20
2023-04-13T21:08:06.012Z,19.33
2023-04-13T21:10:32.778Z,3.97
2023-04-13T21:12:59.384Z,3.20
2023-04-13T21:15:25.992Z,3.23
2023-04-13T21:17:52.622Z,3.70
2023-04-13T21:20:19.267Z,2.20
2023-04-13T21:22:45.936Z,3.30
2023-04-13T21:25:12.773Z,2.70
2023-04-13T21:27:39.319Z,3.53
2023-04-13T21:30:06.449Z,2.90
2023-04-13T21:32:33.248Z,3.40
2023-04-13T21:35:00.478Z,6.17
2023-04-13T21:37:28.206Z,3.13
2023-04-13T21:39:55.451Z,4.40
2023-04-13T21:42:22.773Z,3.37
2023-04-13T21:44:49.772Z,3.80
2023-04-13T21:47:16.343Z,3.40
2023-04-13T21:49:43.119Z,2.70
2023-04-13T21:52:09.971Z,2.67
2023-04-13T21:54:36.528Z,3.80
2023-04-13T21:57:04.584Z,6.20
2023-04-13T21:59:31.146Z,3.40
2023-04-13T22:01:57.760Z,3.90
2023-04-13T22:04:24.496Z,10.20
2023-04-13T22:06:51.317Z,15.27
2023-04-13T22:09:18.018Z,63.83
2023-04-13T22:11:44.690Z,13.23
2023-04-13T22:14:11.279Z,12.30
2023-04-13T22:16:37.810Z,25.33
2023-04-13T22:19:04.409Z,29.57
2023-04-13T22:21:31.357Z,23.47
2023-04-13T22:23:57.860Z,25.67
2023-04-13T22:26:25.403Z,33.20
2023-04-13T22:28:51.973Z,24.53
2023-04-13T22:31:18.654Z,7.43
2023-04-13T22:33:45.265Z,13.87
2023-04-13T22:36:21.342Z,20.70
2023-04-13T22:38:48.182Z,25.30
2023-04-13T22:41:15.947Z,4.17
2023-04-13T22:43:42.540Z,5.97
2023-04-13T22:46:09.112Z,3.10
2023-04-13T22:48:36.067Z,2.67
2023-04-13T22:51:03.667Z,3.00
2023-04-13T22:53:30.452Z,3.37
2023-04-13T22:55:57.300Z,3.67
2023-04-13T22:58:23.934Z,2.87
2023-04-13T23:00:50.763Z,3.30
2023-04-13T23:03:17.817Z,2.97
2023-04-13T23:05:44.411Z,4.10
2023-04-13T23:08:10.998Z,3.50
2023-04-13T23:10:37.723Z,5.00
2023-04-13T23:13:04.722Z,4.43
2023-04-13T23:15:31.432Z,3.90
2023-04-13T23:17:58.043Z,4.07
2023-04-13T23:20:27.394Z,3.60
2023-04-13T23:22:54.000Z,4.80
2023-04-13T23:25:20.816Z,4.30
2023-04-13T23:27:47.401Z,4.00
2023-04-13T23:30:14.010Z,3.87
2023-04-13T23:32:40.647Z,4.30
2023-04-13T23:35:07.498Z,3.10
2023-04-13T23:37:34.066Z,3.27
2023-04-13T23:40:00.964Z,5.87
2023-04-13T23:42:28.677Z,5.10
2023-04-13T23:44:55.606Z,7.50
2023-04-13T23:47:22.374Z,13.17
2023-04-13T23:49:50.903Z,8.83
2023-04-13T23:52:17.755Z,6.77
2023-04-13T23:54:44.457Z,4.60
2023-04-13T23:57:12.775Z,5.20
2023-04-13T23:59:39.430Z,7.73
